Time;durP1;ratioP1;P1;durP2;ratioP2;P2;SDS_P1;SDS_P2;PMS_P1;PMS_P2;Temp;Humidity;BMP_temperature;BMP_pressure;BME280_temperature;BME280_humidity;BME280_pressure;Samples;Min_cycle;Max_cycle;Signal;HPM_P1;HPM_P2
2023/07/19 00:00:18;;;;;;;0.60;0.47;;;;;;;20.89;79.41;100705.56;4955299;28;20564;-64
2023/07/19 00:02:47;;;;;;;1.08;0.70;;;;;;;20.80;79.70;100696.38;4934048;29;20471;-65
2023/07/19 00:05:13;;;;;;;1.17;0.50;;;;;;;20.62;80.22;100702.19;4953999;28;20106;-64
2023/07/19 00:07:38;;;;;;;0.43;0.40;;;;;;;20.71;79.84;100693.44;4955348;28;20043;-63
2023/07/19 00:10:05;;;;;;;0.60;0.43;;;;;;;20.77;79.90;100697.97;4939067;29;20033;-63
2023/07/19 00:12:31;;;;;;;0.65;0.50;;;;;;;20.73;79.52;100689.06;4959143;28;20042;-62
2023/07/19 00:14:57;;;;;;;1.85;0.68;;;;;;;20.60;80.12;100686.19;4950077;28;20122;-63
2023/07/19 00:17:23;;;;;;;0.60;0.40;;;;;;;20.46;80.81;100681.00;4961823;28;20111;-64
2023/07/19 00:19:48;;;;;;;0.32;0.30;;;;;;;20.39;80.77;100677.63;4954646;28;20485;-63
2023/07/19 00:22:13;;;;;;;0.60;0.60;;;;;;;20.37;81.99;100680.03;4958572;28;20043;-62
2023/07/19 00:24:39;;;;;;;0.60;0.60;;;;;;;20.43;81.88;100679.13;4952776;28;20124;-64
2023/07/19 00:27:05;;;;;;;0.82;0.40;;;;;;;20.44;82.29;100671.69;4960256;28;20405;-62
2023/07/19 00:29:30;;;;;;;0.60;0.60;;;;;;;20.37;82.86;100675.34;4956626;28;20177;-64
2023/07/19 00:31:55;;;;;;;0.60;0.60;;;;;;;20.30;83.37;100675.47;4935535;29;20039;-64
2023/07/19 00:34:21;;;;;;;1.30;0.65;;;;;;;20.33;82.64;100669.16;4932847;28;20503;-64
2023/07/19 00:36:46;;;;;;;1.15;0.68;;;;;;;20.38;82.79;100676.09;4964520;28;20039;-65
2023/07/19 00:39:12;;;;;;;0.85;0.43;;;;;;;20.37;82.43;100672.59;4949491;28;20031;-64
2023/07/19 00:41:37;;;;;;;1.25;0.77;;;;;;;20.35;82.16;100666.78;4935860;28;20532;-62
2023/07/19 00:44:03;;;;;;;0.80;0.75;;;;;;;20.37;82.48;100663.59;4932531;29;20034;-64
2023/07/19 00:46:29;;;;;;;0.73;0.70;;;;;;;20.37;82.59;100653.44;4947750;28;20058;-63
2023/07/19 00:48:56;;;;;;;0.47;0.43;;;;;;;20.40;82.16;100658.06;4962094;28;20031;-63
2023/07/19 00:51:23;;;;;;;0.60;0.52;;;;;;;20.39;81.97;100658.50;4955514;28;20036;-61
2023/07/19 00:53:49;;;;;;;0.77;0.40;;;;;;;20.21;82.19;100650.63;4948357;28;20062;-63
2023/07/19 00:56:16;;;;;;;0.65;0.40;;;;;;;20.21;82.34;100649.88;4951052;28;20511;-64
2023/07/19 00:58:42;;;;;;;2.40;0.60;;;;;;;20.26;82.04;100643.91;4946105;28;20064;-64
2023/07/19 01:01:09;;;;;;;2.38;0.50;;;;;;;20.14;82.34;100644.47;4924723;29;20046;-65
2023/07/19 01:03:35;;;;;;;0.55;0.55;;;;;;;20.07;82.30;100633.69;4951708;28;20035;-65
2023/07/19 01:06:01;;;;;;;1.52;0.70;;;;;;;20.05;82.94;100619.66;4943058;29;20067;-64
2023/07/19 01:08:27;;;;;;;0.85;0.40;;;;;;;20.08;82.91;100624.28;4958362;28;20031;-64
2023/07/19 01:10:53;;;;;;;0.90;0.70;;;;;;;19.97;82.37;100616.28;4955090;28;20050;-64
2023/07/19 01:13:19;;;;;;;0.40;0.40;;;;;;;20.13;82.29;100627.28;4959229;28;20035;-65
2023/07/19 01:15:44;;;;;;;0.50;0.38;;;;;;;20.24;82.09;100633.38;4958995;28;20046;-65
2023/07/19 01:18:10;;;;;;;0.90;0.40;;;;;;;20.29;81.86;100632.88;4954258;28;20041;-63
2023/07/19 01:20:37;;;;;;;0.60;0.50;;;;;;;20.32;81.68;100628.53;4930638;28;20026;-64
2023/07/19 01:23:02;;;;;;;0.60;0.60;;;;;;;20.35;81.38;100639.41;4962310;28;20046;-65
2023/07/19 01:25:29;;;;;;;0.73;0.47;;;;;;;20.38;81.11;100629.59;4957242;28;20059;-64
2023/07/19 01:27:54;;;;;;;1.70;1.02;;;;;;;20.28;80.61;100634.09;4940660;28;20062;-65
2023/07/19 01:30:20;;;;;;;1.05;0.52;;;;;;;20.26;81.06;100636.47;4931936;28;20170;-63
2023/07/19 01:32:45;;;;;;;1.17;0.60;;;;;;;20.32;80.77;100642.22;4958849;28;20507;-64
2023/07/19 01:35:13;;;;;;;1.10;0.40;;;;;;;19.99;81.85;100638.53;4945343;29;20118;-64
2023/07/19 01:37:39;;;;;;;0.47;0.35;;;;;;;19.79;82.99;100640.44;4943740;28;20039;-63
2023/07/19 01:40:05;;;;;;;0.90;0.60;;;;;;;19.89;83.29;100635.97;4964269;28;20106;-64
2023/07/19 01:42:31;;;;;;;0.80;0.55;;;;;;;19.99;83.04;100627.59;4957150;28;20483;-64
2023/07/19 01:45:00;;;;;;;0.85;0.50;;;;;;;20.08;82.81;100625.06;4956467;28;20038;-64
2023/07/19 01:47:26;;;;;;;1.02;0.50;;;;;;;20.09;82.85;100634.03;4955398;28;20034;-64
2023/07/19 01:49:51;;;;;;;0.50;0.50;;;;;;;20.15;82.70;100633.13;4946058;28;20027;-64
2023/07/19 01:52:17;;;;;;;0.52;0.45;;;;;;;20.14;83.42;100636.28;4957541;28;20571;-63
2023/07/19 01:54:43;;;;;;;2.88;0.30;;;;;;;20.24;83.09;100638.84;4947038;28;20441;-64
2023/07/19 01:57:08;;;;;;;1.42;0.75;;;;;;;20.27;82.72;100632.53;4950990;28;20034;-64
2023/07/19 01:59:34;;;;;;;0.77;0.50;;;;;;;20.31;82.48;100629.72;4957104;28;20036;-65
2023/07/19 02:02:00;;;;;;;1.27;0.63;;;;;;;20.23;82.63;100631.03;4940180;28;20044;-65
2023/07/19 02:04:26;;;;;;;0.57;0.57;;;;;;;20.23;82.92;100633.78;4942933;28;20039;-63
2023/07/19 02:06:52;;;;;;;0.70;0.60;;;;;;;20.20;82.92;100634.63;4955453;28;20059;-64
2023/07/19 02:09:18;;;;;;;1.23;0.70;;;;;;;20.15;82.53;100643.31;4936413;28;20043;-63
2023/07/19 02:11:44;;;;;;;0.50;0.50;;;;;;;20.09;82.71;100636.78;4941671;28;20388;-62
2023/07/19 02:14:09;;;;;;;0.77;0.50;;;;;;;20.11;82.47;100640.63;4948194;28;20102;-65
2023/07/19 02:16:37;;;;;;;1.23;0.68;;;;;;;20.06;82.69;100637.59;4935428;29;20019;-64
2023/07/19 02:19:05;;;;;;;0.52;0.52;;;;;;;20.03;82.54;100630.25;4929854;29;20046;-64
2023/07/19 02:21:30;;;;;;;0.95;0.60;;;;;;;20.09;82.42;100637.53;4946813;28;20042;-65
2023/07/19 02:23:57;;;;;;;0.47;0.47;;;;;;;20.03;82.59;100639.22;4951152;28;20399;-63
2023/07/19 02:26:23;;;;;;;0.88;0.50;;;;;;;20.08;82.26;100624.28;4928164;28;20043;-64
2023/07/19 02:28:48;;;;;;;0.73;0.70;;;;;;;20.08;81.79;100635.22;4956817;28;20028;-67
2023/07/19 02:31:14;;;;;;;2.20;0.50;;;;;;;20.11;81.56;100623.47;4941933;28;20497;-63
2023/07/19 02:33:39;;;;;;;0.68;0.57;;;;;;;20.14;81.34;100612.44;4952963;28;20030;-63
2023/07/19 02:36:11;;;;;;;0.65;0.50;;;;;;;20.09;81.05;100610.19;4942060;29;20027;-63
2023/07/19 02:38:38;;;;;;;0.50;0.40;;;;;;;20.14;81.11;100609.72;4942178;28;20022;-64
2023/07/19 02:41:04;;;;;;;1.73;0.60;;;;;;;20.09;81.03;100615.66;4932762;29;20037;-64
2023/07/19 02:43:29;;;;;;;2.08;0.52;;;;;;;20.01;80.95;100611.53;4957399;28;20511;-65
2023/07/19 02:45:55;;;;;;;0.60;0.60;;;;;;;20.03;81.23;100611.09;4964120;28;20031;-64
2023/07/19 02:48:22;;;;;;;1.02;0.60;;;;;;;20.00;81.01;100617.41;4946624;28;20039;-64
2023/07/19 02:50:48;;;;;;;0.55;0.43;;;;;;;19.99;80.99;100613.13;4952471;28;20039;-62
2023/07/19 02:53:14;;;;;;;2.03;0.57;;;;;;;20.03;80.74;100608.38;4950054;28;20039;-64
2023/07/19 02:55:43;;;;;;;1.10;0.50;;;;;;;19.98;80.75;100614.31;4942222;29;20496;-63
2023/07/19 02:58:08;;;;;;;0.50;0.50;;;;;;;20.04;80.27;100613.41;4958818;28;20488;-64
2023/07/19 03:00:34;;;;;;;1.50;0.90;;;;;;;20.03;80.21;100616.56;4948097;28;20026;-64
2023/07/19 03:02:59;;;;;;;0.90;0.47;;;;;;;20.00;80.12;100615.44;4944400;28;20027;-64
2023/07/19 03:05:25;;;;;;;0.52;0.50;;;;;;;20.03;80.32;100622.03;4955313;28;20035;-64
2023/07/19 03:07:51;;;;;;;0.40;0.40;;;;;;;20.01;80.66;100616.22;4930220;28;20330;-65
2023/07/19 03:10:17;;;;;;;0.43;0.43;;;;;;;20.01;80.87;100613.50;4963205;28;20043;-62
2023/07/19 03:12:42;;;;;;;0.55;0.47;;;;;;;19.97;81.21;100610.03;4965551;28;20166;-64
2023/07/19 03:15:08;;;;;;;2.60;0.93;;;;;;;19.97;81.66;100613.56;4943775;29;20034;-65
2023/07/19 03:17:34;;;;;;;1.67;0.50;;;;;;;19.93;82.11;100623.78;4948949;28;20065;-64
2023/07/19 03:19:59;;;;;;;0.50;0.45;;;;;;;19.94;82.40;100610.91;4947465;28;20034;-63
2023/07/19 03:22:25;;;;;;;0.50;0.38;;;;;;;19.91;82.66;100606.25;4947284;28;20174;-65
2023/07/19 03:24:50;;;;;;;0.35;0.32;;;;;;;19.86;82.48;100602.03;4960673;28;20039;-65
2023/07/19 03:27:21;;;;;;;0.43;0.43;;;;;;;19.81;83.39;100608.00;4945683;28;20039;-64
2023/07/19 03:29:46;;;;;;;0.43;0.32;;;;;;;19.76;83.15;100608.47;4945071;29;20600;-65
2023/07/19 03:32:12;;;;;;;3.60;0.43;;;;;;;19.75;83.30;100606.94;4956622;28;20110;-64
2023/07/19 03:34:37;;;;;;;1.17;0.43;;;;;;;19.70;83.63;100593.75;4945823;28;20039;-65
2023/07/19 03:37:03;;;;;;;2.33;0.60;;;;;;;19.73;83.43;100603.84;4945998;28;20035;-64
2023/07/19 03:39:29;;;;;;;0.55;0.40;;;;;;;19.72;83.30;100594.84;4957967;28;20046;-64
2023/07/19 03:41:55;;;;;;;0.95;0.50;;;;;;;19.63;83.66;100586.44;4935108;28;20134;-64
2023/07/19 03:44:21;;;;;;;0.35;0.32;;;;;;;19.67;83.40;100578.94;4946881;28;20150;-64
2023/07/19 03:46:47;;;;;;;0.60;0.47;;;;;;;19.62;83.62;100576.72;4959634;28;20074;-64
2023/07/19 03:49:13;;;;;;;0.60;0.45;;;;;;;19.56;83.58;100572.91;4929395;28;20086;-64
2023/07/19 03:51:39;;;;;;;0.40;0.40;;;;;;;19.54;83.40;100574.50;4939023;28;20488;-63
2023/07/19 03:54:04;;;;;;;0.68;0.40;;;;;;;19.45;83.11;100575.03;4936126;29;20504;-63
2023/07/19 03:56:30;;;;;;;0.73;0.50;;;;;;;19.47;83.18;100585.56;4949375;28;20042;-64
2023/07/19 03:58:55;;;;;;;0.50;0.50;;;;;;;19.44;84.14;100581.72;4939189;28;20030;-64
2023/07/19 04:01:21;;;;;;;0.20;0.20;;;;;;;19.45;84.76;100572.31;4954760;28;20039;-65
2023/07/19 04:03:47;;;;;;;0.55;0.50;;;;;;;19.48;84.75;100574.22;4932527;28;20446;-63
2023/07/19 04:06:12;;;;;;;0.70;0.45;;;;;;;19.48;84.92;100565.25;4958428;28;20019;-63
2023/07/19 04:08:37;;;;;;;0.45;0.40;;;;;;;19.51;84.69;100567.91;4949565;28;20090;-63
2023/07/19 04:11:06;;;;;;;0.50;0.40;;;;;;;19.54;84.46;100575.28;4935521;28;20027;-63
2023/07/19 04:13:31;;;;;;;1.17;0.43;;;;;;;19.49;84.20;100578.47;4949051;28;20045;-63
2023/07/19 04:15:57;;;;;;;0.38;0.30;;;;;;;19.52;84.46;100580.41;4924873;28;20019;-63
2023/07/19 04:18:23;;;;;;;0.70;0.55;;;;;;;19.49;84.82;100578.47;4937720;28;20042;-63
2023/07/19 04:20:57;;;;;;;1.30;0.68;;;;;;;19.50;84.74;100562.88;4929222;28;20045;-63
2023/07/19 04:23:23;;;;;;;0.70;0.38;;;;;;;19.48;84.94;100563.28;4935303;29;20065;-63
2023/07/19 04:25:49;;;;;;;2.20;0.47;;;;;;;19.43;84.77;100566.50;4950605;28;20059;-64
2023/07/19 04:28:15;;;;;;;0.73;0.55;;;;;;;19.47;84.42;100564.47;4936581;28;20095;-63
2023/07/19 04:30:41;;;;;;;0.40;0.40;;;;;;;19.42;84.29;100564.97;4948056;28;20034;-63
2023/07/19 04:33:08;;;;;;;0.75;0.50;;;;;;;19.41;84.26;100565.38;4938567;29;20085;-62
2023/07/19 04:35:33;;;;;;;0.38;0.38;;;;;;;19.40;84.12;100566.56;4952271;29;20035;-63
2023/07/19 04:37:59;;;;;;;1.98;0.43;;;;;;;19.33;83.83;100564.72;4937847;28;20503;-63
2023/07/19 04:40:25;;;;;;;1.60;0.63;;;;;;;19.35;84.31;100567.81;4939439;29;20028;-62
2023/07/19 04:42:50;;;;;;;0.60;0.50;;;;;;;19.31;84.61;100569.81;4948325;28;20042;-63
2023/07/19 04:45:16;;;;;;;0.95;0.60;;;;;;;19.40;84.15;100566.56;4920841;29;20135;-63
2023/07/19 04:47:42;;;;;;;0.80;0.40;;;;;;;19.41;84.47;100562.66;4926356;28;20023;-64
2023/07/19 04:50:09;;;;;;;1.02;0.50;;;;;;;19.40;85.23;100563.81;4957360;28;20038;-62
2023/07/19 04:52:36;;;;;;;0.63;0.50;;;;;;;19.46;85.07;100562.16;4935140;29;20047;-63
2023/07/19 04:55:03;;;;;;;0.80;0.32;;;;;;;19.39;85.18;100563.06;4931041;29;20113;-62
2023/07/19 04:57:31;;;;;;;1.85;0.40;;;;;;;19.37;85.19;100564.66;4937197;28;20484;-63
2023/07/19 04:59:57;;;;;;;0.28;0.22;;;;;;;19.38;84.34;100549.81;4937022;29;20032;-63
2023/07/19 05:02:23;;;;;;;2.20;0.77;;;;;;;19.35;84.18;100562.34;4936330;28;20393;-63
2023/07/19 05:04:48;;;;;;;1.17;0.30;;;;;;;19.34;84.30;100558.06;4954996;28;20062;-62
2023/07/19 05:07:14;;;;;;;1.17;0.50;;;;;;;19.36;83.85;100558.44;4939198;28;20153;-63
2023/07/19 05:09:42;;;;;;;0.30;0.30;;;;;;;19.33;83.94;100564.72;4958595;28;20037;-63
2023/07/19 05:12:08;;;;;;;0.82;0.60;;;;;;;19.36;83.94;100563.88;4939638;29;20031;-63
2023/07/19 05:14:33;;;;;;;1.23;0.32;;;;;;;19.34;84.07;100579.13;4939996;29;20102;-63
2023/07/19 05:17:00;;;;;;;1.13;0.60;;;;;;;19.31;84.95;100582.69;4929615;28;20026;-64
2023/07/19 05:19:25;;;;;;;0.70;0.50;;;;;;;19.32;84.87;100585.03;4931469;28;20035;-63
2023/07/19 05:21:51;;;;;;;2.78;0.60;;;;;;;19.25;85.42;100587.06;4942779;28;20213;-64
2023/07/19 05:24:16;;;;;;;0.77;0.57;;;;;;;19.27;85.56;100599.13;4936035;28;20460;-62
2023/07/19 05:26:41;;;;;;;0.70;0.70;;;;;;;19.25;85.70;100601.50;4950731;28;20101;-64
2023/07/19 05:29:08;;;;;;;0.75;0.40;;;;;;;19.25;85.95;100595.28;4953177;28;20036;-63
2023/07/19 05:31:35;;;;;;;0.52;0.35;;;;;;;19.24;86.33;100589.03;4964096;28;20519;-62
2023/07/19 05:34:01;;;;;;;0.73;0.43;;;;;;;19.26;86.02;100592.13;4952464;28;20023;-63
2023/07/19 05:36:26;;;;;;;1.08;0.70;;;;;;;19.29;86.15;100595.97;4962865;28;20026;-63
2023/07/19 05:38:53;;;;;;;0.95;0.40;;;;;;;19.30;86.14;100586.63;4950904;28;20031;-64
2023/07/19 05:41:18;;;;;;;0.35;0.35;;;;;;;19.26;86.50;100591.38;4957163;28;20085;-63
2023/07/19 05:43:44;;;;;;;0.80;0.60;;;;;;;19.27;86.16;100590.16;4960728;28;20447;-63
2023/07/19 05:46:13;;;;;;;0.70;0.38;;;;;;;19.29;86.32;100593.25;4957393;28;20335;-63
2023/07/19 05:48:38;;;;;;;0.43;0.40;;;;;;;19.23;86.43;100581.25;4963299;28;20508;-66
2023/07/19 05:51:06;;;;;;;1.17;0.52;;;;;;;19.28;86.23;100573.34;4951156;28;20063;-64
2023/07/19 05:53:31;;;;;;;0.40;0.40;;;;;;;19.30;86.11;100581.91;4950538;28;20107;-63
2023/07/19 05:55:57;;;;;;;0.73;0.50;;;;;;;19.24;86.61;100571.88;4950050;28;20036;-62
2023/07/19 05:58:23;;;;;;;0.50;0.50;;;;;;;19.27;86.40;100568.31;4926198;28;20074;-63
2023/07/19 06:00:49;;;;;;;0.50;0.50;;;;;;;19.32;85.69;100563.19;4950062;28;20139;-63
2023/07/19 06:03:16;;;;;;;1.35;0.40;;;;;;;19.38;85.26;100569.72;4955290;28;20049;-63
2023/07/19 06:05:45;;;;;;;1.35;0.60;;;;;;;19.30;85.23;100572.97;4954634;28;20130;-62
2023/07/19 06:08:11;;;;;;;0.30;0.30;;;;;;;19.31;85.12;100571.75;4945847;28;20035;-62
2023/07/19 06:10:37;;;;;;;0.60;0.50;;;;;;;19.40;84.31;100581.00;4963486;28;20053;-62
2023/07/19 06:13:05;;;;;;;0.50;0.40;;;;;;;19.31;83.73;100579.94;4943231;28;20040;-62
2023/07/19 06:15:35;;;;;;;0.85;0.50;;;;;;;19.20;83.00;100582.09;4957832;28;20035;-62
2023/07/19 06:18:03;;;;;;;0.93;0.40;;;;;;;19.13;84.15;100579.47;4943665;28;20039;-63
2023/07/19 06:20:29;;;;;;;2.35;0.30;;;;;;;19.11;84.27;100579.88;4950190;28;20388;-62
2023/07/19 06:22:54;;;;;;;0.30;0.28;;;;;;;19.17;84.74;100578.22;4959411;28;20027;-61
2023/07/19 06:25:20;;;;;;;0.57;0.40;;;;;;;19.18;84.04;100579.75;4935392;28;20040;-63
2023/07/19 06:27:45;;;;;;;1.45;0.40;;;;;;;19.24;83.93;100569.91;4958267;28;20039;-63
2023/07/19 06:30:11;;;;;;;0.90;0.50;;;;;;;19.22;83.10;100569.56;4959066;28;20032;-62
2023/07/19 06:32:37;;;;;;;0.73;0.40;;;;;;;19.24;82.92;100560.97;4940001;29;20030;-62
2023/07/19 06:35:04;;;;;;;1.13;0.32;;;;;;;19.19;83.12;100558.69;4946917;28;20481;-63
2023/07/19 06:37:32;;;;;;;0.52;0.40;;;;;;;19.18;83.20;100557.16;4937776;28;20039;-63
2023/07/19 06:39:58;;;;;;;0.95;0.68;;;;;;;19.30;82.75;100551.88;4932477;28;20205;-62
2023/07/19 06:42:23;;;;;;;3.00;0.50;;;;;;;19.31;82.37;100566.28;4950403;28;20162;-60
2023/07/19 06:44:49;;;;;;;0.40;0.40;;;;;;;19.26;82.72;100567.53;4960454;28;20039;-63
2023/07/19 06:47:15;;;;;;;0.43;0.30;;;;;;;19.34;83.08;100560.81;4948387;28;20034;-63
2023/07/19 06:49:41;;;;;;;0.30;0.22;;;;;;;19.38;83.30;100566.97;4931748;28;20031;-63
2023/07/19 06:52:07;;;;;;;0.43;0.30;;;;;;;19.43;83.67;100558.31;4946760;28;20040;-63
2023/07/19 06:54:33;;;;;;;0.52;0.47;;;;;;;19.43;84.05;100561.06;4942283;28;20035;-63
2023/07/19 06:56:58;;;;;;;1.05;0.50;;;;;;;19.46;84.01;100556.69;4943824;28;20088;-64
2023/07/19 06:59:24;;;;;;;0.30;0.30;;;;;;;19.52;83.06;100558.53;4943835;28;20070;-65
2023/07/19 07:01:49;;;;;;;0.25;0.25;;;;;;;19.49;83.40;100556.63;4941265;28;20051;-64
2023/07/19 07:04:15;;;;;;;0.47;0.32;;;;;;;19.50;83.78;100555.44;4938341;28;20039;-63
2023/07/19 07:06:40;;;;;;;0.60;0.40;;;;;;;19.44;83.59;100548.16;4955748;28;20069;-63
2023/07/19 07:09:06;;;;;;;0.68;0.22;;;;;;;19.32;83.70;100552.25;4944287;28;20488;-63
2023/07/19 07:11:31;;;;;;;1.00;0.35;;;;;;;19.35;83.84;100567.81;4953265;28;20031;-64
2023/07/19 07:13:57;;;;;;;3.35;0.25;;;;;;;19.42;83.78;100561.44;4949623;28;20043;-63
2023/07/19 07:16:22;;;;;;;3.05;0.50;;;;;;;19.42;83.46;100562.22;4947922;28;20047;-62
2023/07/19 07:18:48;;;;;;;0.80;0.35;;;;;;;19.44;83.37;100562.59;4967195;28;20496;-63
2023/07/19 07:21:15;;;;;;;0.60;0.28;;;;;;;19.42;83.27;100556.75;4957401;28;20042;-64
2023/07/19 07:23:41;;;;;;;0.40;0.40;;;;;;;19.45;82.79;100550.44;4939468;28;20081;-64
2023/07/19 07:26:06;;;;;;;0.28;0.20;;;;;;;19.53;82.49;100553.84;4957927;28;20431;-63
2023/07/19 07:28:31;;;;;;;0.30;0.20;;;;;;;19.52;82.80;100553.06;4960657;28;20093;-63
2023/07/19 07:30:57;;;;;;;0.38;0.35;;;;;;;19.27;82.49;100558.16;4951562;28;20498;-62
2023/07/19 07:33:22;;;;;;;0.17;0.15;;;;;;;19.38;82.64;100547.84;4943382;28;20107;-63
2023/07/19 07:35:48;;;;;;;0.30;0.20;;;;;;;19.41;82.43;100549.78;4956349;28;20088;-63
2023/07/19 07:38:14;;;;;;;0.17;0.10;;;;;;;19.42;82.22;100543.09;4953756;28;20098;-63
2023/07/19 07:40:40;;;;;;;1.25;0.60;;;;;;;19.43;81.96;100546.63;4954566;28;20118;-60
2023/07/19 07:43:06;;;;;;;0.45;0.30;;;;;;;19.36;82.57;100544.78;4956247;28;20031;-62
2023/07/19 07:45:32;;;;;;;0.30;0.30;;;;;;;19.49;82.17;100537.50;4963179;28;20057;-63
2023/07/19 07:47:57;;;;;;;0.32;0.20;;;;;;;19.43;82.17;100539.19;4942488;29;20035;-62
2023/07/19 07:50:24;;;;;;;0.30;0.30;;;;;;;19.21;81.98;100548.13;4948733;28;20039;-63
2023/07/19 07:52:49;;;;;;;0.32;0.30;;;;;;;19.37;81.32;100549.06;4941373;28;20421;-63
2023/07/19 07:55:15;;;;;;;0.30;0.30;;;;;;;19.31;82.45;100561.63;4956331;28;20054;-63
2023/07/19 07:58:00;;;;;;;1.80;0.45;;;;;;;19.39;82.89;100557.59;4937327;29;20063;-63
2023/07/19 08:00:26;;;;;;;2.17;0.30;;;;;;;19.43;82.90;100541.94;4891351;29;20044;-63
2023/07/19 08:02:52;;;;;;;0.30;0.20;;;;;;;19.59;82.57;100546.69;4889340;29;20103;-65
2023/07/19 08:05:17;;;;;;;0.30;0.30;;;;;;;19.60;82.98;100542.78;4888779;29;20087;-64
2023/07/19 08:07:42;;;;;;;0.30;0.30;;;;;;;19.61;83.56;100531.44;4885603;29;20048;-64
2023/07/19 08:10:08;;;;;;;0.28;0.17;;;;;;;19.70;83.93;100534.38;4885167;29;20040;-64
2023/07/19 08:12:34;;;;;;;0.65;0.30;;;;;;;19.78;84.23;100545.97;4891392;29;20502;-65
2023/07/19 08:14:59;;;;;;;1.52;0.40;;;;;;;19.70;83.44;100550.03;4879900;29;20037;-64
2023/07/19 08:17:26;;;;;;;2.17;0.43;;;;;;;19.76;82.35;100556.56;4885845;29;20053;-64
2023/07/19 08:19:51;;;;;;;0.43;0.30;;;;;;;19.77;81.09;100561.59;4879319;29;20124;-63
2023/07/19 08:22:27;;;;;;;0.40;0.28;;;;;;;19.74;80.73;100539.81;4885666;29;20127;-61
2023/07/19 08:24:53;;;;;;;0.68;0.32;;;;;;;19.92;80.36;100534.00;4892019;29;20064;-65
2023/07/19 08:27:19;;;;;;;0.93;0.40;;;;;;;20.04;79.93;100536.06;4895908;29;20127;-64
2023/07/19 08:29:45;;;;;;;0.30;0.28;;;;;;;20.28;79.20;100534.81;4894356;29;20127;-64
2023/07/19 08:32:11;;;;;;;0.50;0.40;;;;;;;20.30;79.12;100521.50;4895848;29;20059;-65
2023/07/19 08:34:36;;;;;;;0.30;0.30;;;;;;;20.59;78.94;100514.97;4884790;29;20045;-63
2023/07/19 08:37:02;;;;;;;0.20;0.20;;;;;;;20.93;78.32;100524.72;4919493;28;20051;-65
2023/07/19 08:39:27;;;;;;;0.20;0.20;;;;;;;21.28;76.11;100526.63;4954332;28;20043;-63
2023/07/19 08:41:53;;;;;;;0.40;0.20;;;;;;;21.50;75.59;100517.41;4942700;28;20099;-64
2023/07/19 08:44:25;;;;;;;0.63;0.30;;;;;;;21.79;74.26;100530.34;4929857;28;20125;-64
2023/07/19 08:46:51;;;;;;;0.38;0.20;;;;;;;21.93;73.65;100524.50;4944372;28;20079;-64
2023/07/19 08:49:18;;;;;;;0.20;0.13;;;;;;;21.93;70.36;100525.25;4945558;28;20058;-63
2023/07/19 08:51:45;;;;;;;0.17;0.17;;;;;;;21.97;69.86;100514.97;4931468;28;21076;-65
2023/07/19 08:54:11;;;;;;;0.10;0.10;;;;;;;21.99;70.26;100526.28;4942385;28;20122;-63
2023/07/19 08:56:38;;;;;;;0.55;0.17;;;;;;;22.01;69.73;100523.88;4950829;28;20515;-64
2023/07/19 08:59:05;;;;;;;0.60;0.20;;;;;;;22.05;69.81;100524.53;4953128;28;20394;-64
2023/07/19 09:01:31;;;;;;;0.43;0.20;;;;;;;21.97;69.04;100528.69;4948164;29;20031;-63
2023/07/19 09:03:57;;;;;;;0.50;0.20;;;;;;;21.96;68.51;100526.38;4928719;29;20030;-63
2023/07/19 09:06:24;;;;;;;0.20;0.20;;;;;;;21.73;69.05;100521.13;4954011;28;20073;-64
2023/07/19 09:08:51;;;;;;;0.50;0.30;;;;;;;21.92;69.22;100528.44;4945426;28;20039;-63
2023/07/19 09:11:21;;;;;;;0.10;0.10;;;;;;;22.08;69.21;100531.13;4944299;28;20050;-63
2023/07/19 09:13:58;;;;;;;0.20;0.20;;;;;;;22.25;69.17;100529.84;4932599;29;20066;-64
2023/07/19 09:16:32;;;;;;;0.30;0.22;;;;;;;22.32;67.85;100522.16;4929023;28;20039;-64
2023/07/19 09:19:00;;;;;;;0.22;0.22;;;;;;;22.39;67.89;100523.94;4948863;28;20042;-64
2023/07/19 09:21:35;;;;;;;0.60;0.28;;;;;;;22.36;65.21;100522.81;4941873;28;20767;-64
2023/07/19 09:24:08;;;;;;;0.20;0.20;;;;;;;22.59;64.40;100521.75;4954549;28;20039;-64
2023/07/19 09:27:03;;;;;;;0.40;0.17;;;;;;;22.85;64.72;100523.28;4953231;28;20408;-64
2023/07/19 09:29:33;;;;;;;0.20;0.20;;;;;;;23.10;64.08;100522.47;4939140;28;20375;-64
2023/07/19 09:32:02;;;;;;;0.10;0.10;;;;;;;23.19;64.28;100528.81;4950054;29;20077;-64
2023/07/19 09:34:37;;;;;;;0.10;0.10;;;;;;;23.15;61.78;100522.69;4947004;28;20129;-65
2023/07/19 09:37:06;;;;;;;0.13;0.10;;;;;;;23.41;61.66;100509.66;4939009;28;20351;-65
2023/07/19 09:39:35;;;;;;;0.55;0.30;;;;;;;23.70;60.63;100506.69;4938044;28;20114;-62
2023/07/19 09:42:03;;;;;;;0.30;0.30;;;;;;;23.97;61.44;100502.13;4945065;28;20118;-64
2023/07/19 09:44:29;;;;;;;0.65;0.22;;;;;;;24.25;60.79;100511.34;4945915;28;20058;-65
2023/07/19 09:46:54;;;;;;;0.28;0.20;;;;;;;24.37;58.84;100510.47;4943354;28;20035;-63
2023/07/19 09:49:20;;;;;;;0.13;0.13;;;;;;;24.31;58.90;100498.53;4946575;28;20766;-65
2023/07/19 09:51:47;;;;;;;0.47;0.20;;;;;;;24.41;57.07;100499.34;4933097;28;20035;-65
2023/07/19 09:54:15;;;;;;;0.55;0.17;;;;;;;24.51;57.12;100501.66;4945602;28;20059;-63
2023/07/19 09:56:44;;;;;;;0.55;0.30;;;;;;;24.55;56.41;100505.03;4944989;28;20041;-63
2023/07/19 09:59:14;;;;;;;0.10;0.10;;;;;;;24.80;55.93;100495.78;4916548;29;20035;-63
2023/07/19 10:01:40;;;;;;;0.40;0.20;;;;;;;24.96;56.03;100492.78;4949452;28;20066;-64
2023/07/19 10:04:29;;;;;;;0.95;0.20;;;;;;;25.07;56.21;100486.84;4931545;28;20090;-63
2023/07/19 10:07:07;;;;;;;0.35;0.30;;;;;;;25.22;55.31;100488.53;4944151;28;20188;-64
2023/07/19 10:09:38;;;;;;;0.25;0.20;;;;;;;25.22;54.63;100493.28;4950376;28;20043;-65
2023/07/19 10:12:15;;;;;;;0.98;0.25;;;;;;;25.47;53.82;100496.53;4939548;28;20027;-64
2023/07/19 10:14:56;;;;;;;0.20;0.20;;;;;;;25.62;52.90;100491.16;4951772;28;20086;-64
2023/07/19 10:17:22;;;;;;;0.40;0.30;;;;;;;25.54;52.93;100487.16;4944480;28;20043;-65
2023/07/19 10:20:08;;;;;;;0.38;0.30;;;;;;;25.81;52.73;100496.19;4943590;28;20035;-64
2023/07/19 10:22:48;;;;;;;0.82;0.30;;;;;;;25.82;52.50;100496.97;4911475;28;20089;-65
2023/07/19 10:25:15;;;;;;;1.30;0.30;;;;;;;25.79;53.64;100492.34;4946100;28;20118;-64
2023/07/19 10:27:41;;;;;;;0.50;0.28;;;;;;;25.36;51.73;100492.69;4908205;29;20047;-64
2023/07/19 10:30:07;;;;;;;0.30;0.30;;;;;;;25.28;51.78;100492.19;4951615;28;20408;-64
2023/07/19 10:32:32;;;;;;;0.95;0.20;;;;;;;24.75;53.24;100493.66;4928938;28;20027;-64
2023/07/19 10:34:57;;;;;;;0.40;0.20;;;;;;;24.61;54.44;100500.47;4933017;29;20042;-64
2023/07/19 10:37:23;;;;;;;0.40;0.30;;;;;;;24.61;53.90;100494.97;4952155;28;20066;-64
2023/07/19 10:39:48;;;;;;;0.95;0.40;;;;;;;24.55;54.86;100502.28;4946043;28;20035;-63
2023/07/19 10:42:14;;;;;;;0.40;0.35;;;;;;;24.36;54.54;100488.88;4953669;28;20413;-64
2023/07/19 10:44:40;;;;;;;0.60;0.30;;;;;;;24.17;54.12;100479.78;4949975;28;20476;-64
2023/07/19 10:47:06;;;;;;;0.40;0.30;;;;;;;23.77;55.42;100487.19;4920553;29;20480;-64
2023/07/19 10:49:31;;;;;;;5.40;0.30;;;;;;;23.74;56.75;100479.81;4935883;28;20035;-63
2023/07/19 10:51:58;;;;;;;1.55;0.35;;;;;;;23.85;56.82;100478.19;4940730;28;20027;-64
2023/07/19 10:54:25;;;;;;;0.15;0.15;;;;;;;23.83;56.57;100477.09;4953348;28;20030;-64
2023/07/19 10:56:52;;;;;;;0.40;0.35;;;;;;;24.16;57.06;100475.50;4932370;28;20551;-64
2023/07/19 10:59:18;;;;;;;0.45;0.30;;;;;;;24.48;55.61;100475.03;4949802;28;20087;-64
2023/07/19 11:01:46;;;;;;;1.10;0.77;;;;;;;24.80;53.62;100484.78;4924037;28;20110;-64
2023/07/19 11:04:12;;;;;;;0.50;0.20;;;;;;;24.31;53.23;100487.50;4954610;29;20050;-64
2023/07/19 11:06:39;;;;;;;0.30;0.28;;;;;;;24.45;54.75;100480.69;4936606;29;20019;-64
2023/07/19 11:09:09;;;;;;;0.50;0.30;;;;;;;24.63;55.45;100477.97;4951041;28;20385;-64
2023/07/19 11:11:36;;;;;;;0.60;0.20;;;;;;;24.73;55.93;100474.81;4961972;28;20023;-63
2023/07/19 11:14:02;;;;;;;1.50;0.40;;;;;;;24.68;55.38;100478.13;4921799;29;20306;-63
2023/07/19 11:16:31;;;;;;;0.30;0.30;;;;;;;24.61;55.36;100478.44;4955870;28;20053;-63
2023/07/19 11:18:57;;;;;;;3.03;0.38;;;;;;;24.68;55.76;100482.91;4921162;29;20035;-63
2023/07/19 11:21:27;;;;;;;0.52;0.30;;;;;;;24.53;55.51;100474.41;4947296;28;20027;-63